createdAt,value
2023-05-20T00:00:13.792Z,1006.4
2023-05-20T00:01:30.000Z,1006.4
2023-05-20T00:02:46.000Z,1006.4
2023-05-20T00:04:02.688Z,1006.4
2023-05-20T00:05:18.000Z,1006.5
2023-05-20T00:06:34.000Z,1006.4
2023-05-20T00:07:50.000Z,1006.4
2023-05-20T00:09:06.000Z,1006.4
2023-05-20T00:10:23.000Z,1006.3
2023-05-20T00:11:39.000Z,1006.4
2023-05-20T00:12:55.000Z,1006.4
2023-05-20T00:14:12.000Z,1006.3
2023-05-20T00:15:28.000Z,1006.4
2023-05-20T00:16:44.000Z,1006.3
2023-05-20T00:18:00.000Z,1006.3
2023-05-20T00:19:17.234Z,1006.3
2023-05-20T00:20:33.521Z,1006.3
2023-05-20T00:21:48.000Z,1006.3
2023-05-20T00:23:05.000Z,1006.3
2023-05-20T00:24:21.000Z,1006.3
2023-05-20T00:25:37.000Z,1006.3
2023-05-20T00:26:54.000Z,1006.2
2023-05-20T00:28:10.292Z,1006.2
2023-05-20T00:29:26.589Z,1006.2
2023-05-20T00:30:42.897Z,1006.2
2023-05-20T00:31:59.000Z,1006.2
2023-05-20T00:33:15.000Z,1006.2
2023-05-20T00:34:31.000Z,1006.1
2023-05-20T00:35:48.000Z,1006.1
2023-05-20T00:37:04.000Z,1006.1
2023-05-20T00:38:19.000Z,1006.1
2023-05-20T00:39:35.000Z,1006.1
2023-05-20T00:40:52.000Z,1006.1
2023-05-20T00:42:08.554Z,1006.1
2023-05-20T00:43:24.835Z,1006.1
2023-05-20T00:44:41.000Z,1006
2023-05-20T00:45:57.000Z,1006
2023-05-20T00:47:13.000Z,1006
2023-05-20T00:48:30.000Z,1006
2023-05-20T00:49:46.000Z,1006.1
2023-05-20T00:51:02.000Z,1006.1
2023-05-20T00:52:18.890Z,1006.2
2023-05-20T00:53:35.000Z,1006.2
2023-05-20T00:54:50.000Z,1006.2
2023-05-20T00:56:06.000Z,1006.2
2023-05-20T00:57:23.084Z,1006.3
2023-05-20T00:58:39.000Z,1006.3
2023-05-20T00:59:55.671Z,1006.3
2023-05-20T01:01:11.000Z,1006.3
2023-05-20T01:02:28.265Z,1006.3
2023-05-20T01:03:44.000Z,1006.3
2023-05-20T01:05:00.844Z,1006.2
2023-05-20T01:06:17.000Z,1006.3
2023-05-20T01:07:33.433Z,1006.3
2023-05-20T01:08:49.000Z,1006.3
2023-05-20T01:10:06.000Z,1006.3
2023-05-20T01:11:21.000Z,1006.3
2023-05-20T01:12:37.000Z,1006.3
2023-05-20T01:13:53.922Z,1006.3
2023-05-20T01:15:10.000Z,1006.3
2023-05-20T01:16:26.000Z,1006.3
2023-05-20T01:17:42.000Z,1006.3
2023-05-20T01:18:59.000Z,1006.3
2023-05-20T01:20:15.000Z,1006.3
2023-05-20T01:21:31.000Z,1006.3
2023-05-20T01:22:47.980Z,1006.3
2023-05-20T01:24:04.266Z,1006.3
2023-05-20T01:25:20.000Z,1006.3
2023-05-20T01:26:36.000Z,1006.3
2023-05-20T01:27:52.164Z,1006.2
2023-05-20T01:29:08.000Z,1006.2
2023-05-20T01:30:24.000Z,1006.2
2023-05-20T01:31:41.000Z,1006.2
2023-05-20T01:32:57.316Z,1006.1
2023-05-20T01:34:13.000Z,1006.2
2023-05-20T01:35:28.953Z,1006.2
2023-05-20T01:36:45.000Z,1006.2
2023-05-20T01:38:01.000Z,1006.2
2023-05-20T01:39:17.000Z,1006.1
2023-05-20T01:40:34.000Z,1006.1
2023-05-20T01:41:50.000Z,1006.1
2023-05-20T01:43:06.000Z,1006.2
2023-05-20T01:44:23.000Z,1006.2
2023-05-20T01:45:39.303Z,1006.2
2023-05-20T01:46:55.582Z,1006.1
2023-05-20T01:48:11.000Z,1006.2
2023-05-20T01:49:28.000Z,1006.2
2023-05-20T01:50:44.000Z,1006.2
2023-05-20T01:51:59.000Z,1006.1
2023-05-20T01:53:16.000Z,1006.1
2023-05-20T01:54:32.000Z,1006.1
2023-05-20T01:55:48.000Z,1006.1
2023-05-20T01:57:04.000Z,1006.2
2023-05-20T01:58:21.247Z,1006.2
2023-05-20T01:59:37.000Z,1006.2
2023-05-20T02:00:53.000Z,1006.2
2023-05-20T02:02:10.000Z,1006.2
2023-05-20T02:03:26.000Z,1006.3
2023-05-20T02:04:42.000Z,1006.2
2023-05-20T02:05:59.000Z,1006.2
2023-05-20T02:07:15.000Z,1006.2
2023-05-20T02:08:30.616Z,1006.2
2023-05-20T02:09:46.000Z,1006.2
2023-05-20T02:11:03.000Z,1006.2
2023-05-20T02:12:19.000Z,1006.2
2023-05-20T02:13:35.781Z,1006.2
2023-05-20T02:14:52.072Z,1006.2
2023-05-20T02:16:08.373Z,1006.1
2023-05-20T02:17:24.000Z,1006.1
2023-05-20T02:18:40.000Z,1006.1
2023-05-20T02:19:57.260Z,1006.1
2023-05-20T02:21:13.000Z,1006.1
2023-05-20T02:22:29.000Z,1006.1
2023-05-20T02:23:46.000Z,1006
2023-05-20T02:25:01.000Z,1006
2023-05-20T02:26:17.000Z,1006
2023-05-20T02:27:34.000Z,1006
2023-05-20T02:28:50.304Z,1006
2023-05-20T02:30:06.000Z,1005.9
2023-05-20T02:31:22.000Z,1006
2023-05-20T02:32:39.000Z,1006
2023-05-20T02:33:55.000Z,1006
2023-05-20T02:35:11.000Z,1006.1
2023-05-20T02:36:28.000Z,1006
2023-05-20T02:37:44.000Z,1006
2023-05-20T02:39:00.606Z,1006
2023-05-20T02:40:16.000Z,1006.1
2023-05-20T02:41:32.000Z,1006.2
2023-05-20T02:42:48.000Z,1006.1
2023-05-20T02:44:04.000Z,1006.1
2023-05-20T02:45:20.000Z,1006.1
2023-05-20T02:46:37.000Z,1006
2023-05-20T02:47:53.000Z,1006
2023-05-20T02:49:09.000Z,1006
2023-05-20T02:50:25.000Z,1005.8
2023-05-20T02:51:42.000Z,1005.9
2023-05-20T02:52:58.000Z,1005.9
2023-05-20T02:54:14.000Z,1005.9
2023-05-20T02:55:30.000Z,1005.9
2023-05-20T02:56:47.000Z,1005.9
2023-05-20T02:58:02.000Z,1005.8
2023-05-20T02:59:18.000Z,1005.8
2023-05-20T03:00:34.000Z,1005.9
2023-05-20T03:01:50.972Z,1005.9
2023-05-20T03:03:07.000Z,1005.9
2023-05-20T03:04:23.000Z,1006
2023-05-20T03:05:39.000Z,1006
2023-05-20T03:06:55.000Z,1006
2023-05-20T03:08:12.157Z,1006
2023-05-20T03:09:28.000Z,1005.9
2023-05-20T03:10:44.000Z,1006
2023-05-20T03:12:00.000Z,1005.9
2023-05-20T03:13:17.000Z,1006.1
2023-05-20T03:14:32.391Z,1005.9
2023-05-20T03:15:48.000Z,1005.9
2023-05-20T03:17:04.000Z,1005.9
2023-05-20T03:18:21.000Z,1006
2023-05-20T03:19:37.000Z,1006
2023-05-20T03:20:53.000Z,1006
2023-05-20T03:22:09.000Z,1006
2023-05-20T03:23:26.000Z,1006
2023-05-20T03:24:42.297Z,1006
2023-05-20T03:25:58.000Z,1006
2023-05-20T03:27:14.000Z,1006
2023-05-20T03:28:31.000Z,1006
2023-05-20T03:29:47.000Z,1006
2023-05-20T03:31:03.477Z,1006
2023-05-20T03:32:18.741Z,1006
2023-05-20T03:33:35.000Z,1006
2023-05-20T03:34:51.000Z,1006
2023-05-20T03:36:07.000Z,1006
2023-05-20T03:37:23.711Z,1006
2023-05-20T03:38:39.000Z,1006
2023-05-20T03:39:56.000Z,1006
2023-05-20T03:41:12.418Z,1006
2023-05-20T03:42:28.000Z,1006
2023-05-20T03:43:44.000Z,1006
2023-05-20T03:45:01.000Z,1006
2023-05-20T03:46:17.374Z,1006
2023-05-20T03:47:33.617Z,1006
2023-05-20T03:48:48.000Z,1006.1
2023-05-20T03:50:05.000Z,1006
2023-05-20T03:51:21.000Z,1006
2023-05-20T03:52:37.000Z,1006.1
2023-05-20T03:53:53.000Z,1006
2023-05-20T03:55:10.074Z,1006
2023-05-20T03:56:26.000Z,1006
2023-05-20T03:57:42.553Z,1006
2023-05-20T03:58:58.766Z,1006
2023-05-20T04:00:15.000Z,1006
2023-05-20T04:01:31.000Z,1006
2023-05-20T04:02:47.000Z,1005.9
2023-05-20T04:04:03.000Z,1006
2023-05-20T04:05:19.000Z,1006
2023-05-20T04:06:35.000Z,1006
2023-05-20T04:07:51.000Z,1006
2023-05-20T04:09:07.000Z,1006
2023-05-20T04:10:23.974Z,1006
2023-05-20T04:11:40.000Z,1006
2023-05-20T04:12:56.000Z,1006
2023-05-20T04:14:12.000Z,1006
2023-05-20T04:15:28.000Z,1006
2023-05-20T04:16:45.000Z,1006
2023-05-20T04:18:01.000Z,1005.9
2023-05-20T04:19:17.000Z,1006
2023-05-20T04:20:33.000Z,1005.9
2023-05-20T04:21:49.133Z,1005.9
2023-05-20T04:23:05.000Z,1005.9
2023-05-20T04:24:21.000Z,1006
2023-05-20T04:25:37.000Z,1005.9
2023-05-20T04:26:54.000Z,1005.9
2023-05-20T04:28:10.000Z,1006
2023-05-20T04:29:26.000Z,1006
2023-05-20T04:30:42.000Z,1006
2023-05-20T04:31:59.000Z,1006
2023-05-20T04:33:15.000Z,1006.1
2023-05-20T04:34:31.000Z,1006
2023-05-20T04:35:47.000Z,1006
2023-05-20T04:37:04.000Z,1006
2023-05-20T04:38:19.000Z,1006
2023-05-20T04:39:35.000Z,1006
2023-05-20T04:40:51.000Z,1006.1
2023-05-20T04:42:07.000Z,1006.1
2023-05-20T04:43:24.000Z,1006.1
2023-05-20T04:44:40.000Z,1006.1
2023-05-20T04:45:56.671Z,1006.2
2023-05-20T04:47:12.000Z,1006.1
2023-05-20T04:48:29.000Z,1006.2
2023-05-20T04:49:45.000Z,1006.2
2023-05-20T04:51:01.000Z,1006.2
2023-05-20T04:52:17.000Z,1006.2
2023-05-20T04:53:34.000Z,1006.2
2023-05-20T04:54:49.000Z,1006.2
2023-05-20T04:56:05.000Z,1006.1
2023-05-20T04:57:21.000Z,1006.1
2023-05-20T04:58:38.000Z,1006.2
2023-05-20T04:59:54.000Z,1006.2
2023-05-20T05:01:10.000Z,1006.1
2023-05-20T05:02:26.000Z,1006.1
2023-05-20T05:03:43.000Z,1006.2
2023-05-20T05:04:59.000Z,1006.1
2023-05-20T05:06:15.000Z,1006.1
2023-05-20T05:07:31.000Z,1006.1
2023-05-20T05:08:48.034Z,1006
2023-05-20T05:10:04.000Z,1006.1
2023-05-20T05:11:19.000Z,1006
2023-05-20T05:12:35.000Z,1006.1
2023-05-20T05:13:52.000Z,1006
2023-05-20T05:15:08.000Z,1006.1
2023-05-20T05:16:24.000Z,1006.1
2023-05-20T05:17:40.000Z,1006.1
2023-05-20T05:18:56.000Z,1006.1
2023-05-20T05:20:13.000Z,1006.1
2023-05-20T05:21:29.000Z,1006.2
2023-05-20T05:22:45.671Z,1006.2
2023-05-20T05:24:01.000Z,1006.2
2023-05-20T05:25:18.000Z,1006.2
2023-05-20T05:26:34.000Z,1006.2
2023-05-20T05:27:49.000Z,1006.2
2023-05-20T05:29:05.000Z,1006.2
2023-05-20T05:30:22.000Z,1006.2
2023-05-20T05:31:38.000Z,1006.1
2023-05-20T05:32:54.000Z,1006.1
2023-05-20T05:34:10.844Z,1006.1
2023-05-20T05:35:27.091Z,1006.1
2023-05-20T05:36:43.000Z,1006
2023-05-20T05:37:59.000Z,1006
2023-05-20T05:39:15.000Z,1006
2023-05-20T05:40:32.000Z,1006
2023-05-20T05:41:48.000Z,1006
2023-05-20T05:43:04.000Z,1005.9
2023-05-20T05:44:19.000Z,1005.9
2023-05-20T05:45:36.000Z,1005.8
2023-05-20T05:46:52.263Z,1005.8
2023-05-20T05:48:08.000Z,1005.8
2023-05-20T05:49:24.000Z,1005.8
2023-05-20T05:50:40.000Z,1005.8
2023-05-20T05:51:56.000Z,1005.8
2023-05-20T05:53:12.000Z,1005.7
2023-05-20T05:54:28.000Z,1005.7
2023-05-20T05:55:44.956Z,1005.7
2023-05-20T05:57:01.000Z,1005.7
2023-05-20T05:58:17.000Z,1005.7
2023-05-20T05:59:33.000Z,1005.7
2023-05-20T06:00:49.000Z,1005.7
2023-05-20T06:02:06.000Z,1005.7
2023-05-20T06:03:22.000Z,1005.7
2023-05-20T06:04:38.000Z,1005.6
2023-05-20T06:05:54.000Z,1005.6
2023-05-20T06:07:10.133Z,1005.6
2023-05-20T06:08:26.000Z,1005.7
2023-05-20T06:09:42.000Z,1005.6
2023-05-20T06:10:58.000Z,1005.6
2023-05-20T06:12:15.090Z,1005.6
2023-05-20T06:13:31.000Z,1005.5
2023-05-20T06:14:47.000Z,1005.6
2023-05-20T06:16:03.000Z,1005.6
2023-05-20T06:17:20.000Z,1005.4
2023-05-20T06:18:36.000Z,1005.5
2023-05-20T06:19:52.519Z,1005.5
2023-05-20T06:21:08.000Z,1005.6
2023-05-20T06:22:25.000Z,1005.6
2023-05-20T06:23:40.000Z,1005.5
2023-05-20T06:24:56.000Z,1005.5
2023-05-20T06:26:12.000Z,1005.6
2023-05-20T06:27:28.000Z,1005.6
2023-05-20T06:28:45.000Z,1005.6
2023-05-20T06:30:01.000Z,1005.6
2023-05-20T06:31:17.000Z,1005.6
2023-05-20T06:32:33.924Z,1005.6
2023-05-20T06:33:50.000Z,1005.6
2023-05-20T06:35:06.000Z,1005.6
2023-05-20T06:36:22.000Z,1005.7
2023-05-20T06:37:38.000Z,1005.7
2023-05-20T06:38:55.000Z,1005.7
2023-05-20T06:40:10.374Z,1005.6
2023-05-20T06:41:26.000Z,1005.7
2023-05-20T06:42:42.861Z,1005.7
2023-05-20T06:43:59.000Z,1005.7
2023-05-20T06:45:15.000Z,1005.8
2023-05-20T06:46:31.000Z,1005.7
2023-05-20T06:47:47.000Z,1005.7
2023-05-20T06:49:04.000Z,1005.7
2023-05-20T06:50:20.269Z,1005.7
2023-05-20T06:51:36.000Z,1005.6
2023-05-20T06:52:52.758Z,1005.7
2023-05-20T06:54:09.000Z,1005.7
2023-05-20T06:55:25.242Z,1005.7
2023-05-20T06:56:40.000Z,1005.6
2023-05-20T06:57:56.732Z,1005.7
2023-05-20T06:59:12.000Z,1005.7
2023-05-20T07:00:29.000Z,1005.6
2023-05-20T07:01:45.459Z,1005.6
2023-05-20T07:03:01.000Z,1005.6
2023-05-20T07:04:17.000Z,1005.6
2023-05-20T07:05:34.170Z,1005.6
2023-05-20T07:06:50.000Z,1005.6
2023-05-20T07:08:06.000Z,1005.6
2023-05-20T07:09:22.000Z,1005.7
2023-05-20T07:10:39.000Z,1005.6
2023-05-20T07:11:55.000Z,1005.6
2023-05-20T07:13:10.598Z,1005.5
2023-05-20T07:14:26.000Z,1005.6
2023-05-20T07:15:43.115Z,1005.5
2023-05-20T07:16:59.000Z,1005.5
2023-05-20T07:18:15.000Z,1005.5
2023-05-20T07:19:31.000Z,1005.4
2023-05-20T07:20:48.000Z,1005.5
2023-05-20T07:22:04.000Z,1005.4
2023-05-20T07:23:20.000Z,1005.5
2023-05-20T07:24:36.000Z,1005.5
2023-05-20T07:25:53.013Z,1005.5
2023-05-20T07:27:09.000Z,1005.4
2023-05-20T07:28:25.000Z,1005.4
2023-05-20T07:29:40.000Z,1005.5
2023-05-20T07:30:57.000Z,1005.4
2023-05-20T07:32:13.000Z,1005.3
2023-05-20T07:33:29.000Z,1005.4
2023-05-20T07:34:45.716Z,1005.3
2023-05-20T07:36:01.957Z,1005.4
2023-05-20T07:37:18.000Z,1005.3
2023-05-20T07:38:34.426Z,1005.3
2023-05-20T07:39:50.000Z,1005.2
2023-05-20T07:41:06.000Z,1005.3
2023-05-20T07:42:23.000Z,1005.2
2023-05-20T07:43:39.387Z,1005.2
2023-05-20T07:44:55.000Z,1005.3
2023-05-20T07:46:10.000Z,1005.2
2023-05-20T07:47:27.000Z,1005.2
2023-05-20T07:48:43.000Z,1005.2
2023-05-20T07:49:59.000Z,1005.2
2023-05-20T07:51:15.817Z,1005.2
2023-05-20T07:52:32.000Z,1005.2
2023-05-20T07:53:48.000Z,1005.2
2023-05-20T07:55:04.000Z,1005.2
2023-05-20T07:56:20.000Z,1005.1
2023-05-20T07:57:37.000Z,1005.1
2023-05-20T07:58:53.000Z,1005.1
2023-05-20T08:00:09.492Z,1005.2
2023-05-20T08:01:25.000Z,1005.2
2023-05-20T08:02:41.000Z,1005.1
2023-05-20T08:03:57.000Z,1005.2
2023-05-20T08:05:13.000Z,1005.2
2023-05-20T08:06:29.000Z,1005.3
2023-05-20T08:07:45.000Z,1005.3
2023-05-20T08:09:02.000Z,1005.3
2023-05-20T08:10:18.000Z,1005.3
2023-05-20T08:11:34.000Z,1005.3
2023-05-20T08:12:50.000Z,1005.3
2023-05-20T08:14:07.000Z,1005.2
2023-05-20T08:15:23.000Z,1005.2
2023-05-20T08:16:39.000Z,1005.1
2023-05-20T08:17:55.000Z,1005.1
2023-05-20T08:19:11.152Z,1005.1
2023-05-20T08:20:27.000Z,1005.1
2023-05-20T08:22:59.000Z,1005.1
2023-05-20T08:24:16.000Z,1005.1
2023-05-20T08:25:32.000Z,1005.2
2023-05-20T08:26:48.000Z,1005.1
2023-05-20T08:28:04.000Z,1005.2
2023-05-20T08:29:21.000Z,1005.2
2023-05-20T08:30:37.000Z,1005.2
2023-05-20T08:31:53.000Z,1005.2
2023-05-20T08:33:09.000Z,1005.1
2023-05-20T08:34:26.000Z,1005.1
2023-05-20T08:35:41.256Z,1005.1
2023-05-20T08:36:57.000Z,1005.1
2023-05-20T08:38:13.000Z,1005.1
2023-05-20T08:39:29.000Z,1005.1
2023-05-20T08:40:46.000Z,1005.1
2023-05-20T08:42:02.000Z,1005.1
2023-05-20T08:43:18.000Z,1005
2023-05-20T08:44:34.947Z,1005.1
2023-05-20T08:45:51.000Z,1005.1
2023-05-20T08:47:07.000Z,1005.1
2023-05-20T08:48:23.000Z,1005
2023-05-20T08:49:39.000Z,1005
2023-05-20T08:50:56.000Z,1005
2023-05-20T08:52:11.000Z,1004.9
2023-05-20T08:53:27.000Z,1004.9
2023-05-20T08:54:43.000Z,1005
2023-05-20T08:56:00.000Z,1005
2023-05-20T08:57:16.000Z,1004.9
2023-05-20T08:58:32.000Z,1004.9
2023-05-20T08:59:48.000Z,1005
2023-05-20T09:01:05.000Z,1004.9
2023-05-20T09:02:21.000Z,1004.9
2023-05-20T09:03:37.000Z,1004.9
2023-05-20T09:04:53.770Z,1004.9
2023-05-20T09:06:10.000Z,1004.9
2023-05-20T09:07:26.000Z,1005
2023-05-20T09:08:41.000Z,1004.9
2023-05-20T09:09:57.000Z,1004.8
2023-05-20T09:11:13.000Z,1004.9
2023-05-20T09:12:30.000Z,1004.8
2023-05-20T09:13:46.000Z,1004.8
2023-05-20T09:15:02.000Z,1004.7
2023-05-20T09:16:18.000Z,1004.8
2023-05-20T09:17:35.000Z,1004.7
2023-05-20T09:18:51.000Z,1004.8
2023-05-20T09:20:07.000Z,1004.7
2023-05-20T09:21:23.000Z,1004.8
2023-05-20T09:22:40.000Z,1004.8
2023-05-20T09:23:56.341Z,1004.8
2023-05-20T09:25:11.000Z,1004.7
2023-05-20T09:26:27.000Z,1004.7
2023-05-20T09:27:44.103Z,1004.7
2023-05-20T09:29:00.000Z,1004.7
2023-05-20T09:30:16.000Z,1004.7
2023-05-20T09:31:32.000Z,1004.7
2023-05-20T09:32:49.000Z,1004.7
2023-05-20T09:34:05.000Z,1004.7
2023-05-20T09:35:21.000Z,1004.7
2023-05-20T09:36:37.000Z,1004.6
2023-05-20T09:37:54.000Z,1004.7
2023-05-20T09:39:10.000Z,1004.6
2023-05-20T09:40:26.000Z,1004.6
2023-05-20T09:41:41.000Z,1004.7
2023-05-20T09:42:58.000Z,1004.6
2023-05-20T09:44:14.000Z,1004.6
2023-05-20T09:45:30.000Z,1004.6
2023-05-20T09:46:46.000Z,1004.5
2023-05-20T09:48:02.000Z,1004.5
2023-05-20T09:49:19.000Z,1004.5
2023-05-20T09:50:35.000Z,1004.5
2023-05-20T09:51:51.000Z,1004.5
2023-05-20T09:53:07.000Z,1004.5
2023-05-20T09:54:24.000Z,1004.6
2023-05-20T09:55:40.000Z,1004.6
2023-05-20T09:56:56.000Z,1004.5
2023-05-20T09:58:11.000Z,1004.5
2023-05-20T09:59:28.000Z,1004.5
2023-05-20T10:00:44.000Z,1004.3
2023-05-20T10:02:00.000Z,1004.3
2023-05-20T10:03:16.000Z,1004.3
2023-05-20T10:04:33.000Z,1004.3
2023-05-20T10:05:48.000Z,1004.3
2023-05-20T10:07:04.000Z,1004.3
2023-05-20T10:08:20.000Z,1004.3
2023-05-20T10:09:37.000Z,1004.2
2023-05-20T10:10:53.000Z,1004.2
2023-05-20T10:12:09.000Z,1004.2
2023-05-20T10:13:25.000Z,1004.2
2023-05-20T10:14:42.000Z,1004.1
2023-05-20T10:15:58.000Z,1004.1
2023-05-20T10:17:14.000Z,1004.1
2023-05-20T10:18:30.732Z,1004.1
2023-05-20T10:19:46.000Z,1004.1
2023-05-20T10:21:03.000Z,1004.2
2023-05-20T10:22:18.000Z,1004.1
2023-05-20T10:23:34.000Z,1004.1
2023-05-20T10:24:50.000Z,1004.1
2023-05-20T10:26:07.000Z,1004.1
2023-05-20T10:27:23.000Z,1004.2
2023-05-20T10:28:39.000Z,1004.1
2023-05-20T10:29:55.000Z,1004.1
2023-05-20T10:31:12.000Z,1004.1
2023-05-20T10:32:28.000Z,1004
2023-05-20T10:33:44.000Z,1004.1
2023-05-20T10:35:00.000Z,1004
2023-05-20T10:36:17.000Z,1004
2023-05-20T10:37:33.000Z,1004
2023-05-20T10:38:48.571Z,1003.9
2023-05-20T10:40:04.000Z,1003.9
2023-05-20T10:41:21.000Z,1003.9
2023-05-20T10:42:37.000Z,1003.9
2023-05-20T10:43:53.000Z,1004
2023-05-20T10:45:09.000Z,1004
2023-05-20T10:46:26.000Z,1004
2023-05-20T10:47:42.000Z,1004
2023-05-20T10:48:58.000Z,1004
2023-05-20T10:50:14.000Z,1003.9
2023-05-20T10:51:30.000Z,1004
2023-05-20T10:52:47.000Z,1004
2023-05-20T10:54:03.000Z,1004
2023-05-20T10:55:18.000Z,1003.9
2023-05-20T10:56:34.000Z,1004
2023-05-20T10:57:51.000Z,1003.8
2023-05-20T10:59:07.434Z,1003.8
2023-05-20T11:00:23.000Z,1003.8
2023-05-20T11:01:39.919Z,1003.8
2023-05-20T11:02:56.000Z,1003.8
2023-05-20T11:04:12.000Z,1003.8
2023-05-20T11:05:28.000Z,1003.8
2023-05-20T11:06:44.000Z,1003.7
2023-05-20T11:08:01.000Z,1003.6
2023-05-20T11:09:17.000Z,1003.7
2023-05-20T11:10:33.000Z,1003.7
2023-05-20T11:11:48.000Z,1003.7
2023-05-20T11:13:05.000Z,1003.7
2023-05-20T11:14:21.000Z,1003.7
2023-05-20T11:15:37.000Z,1003.7
2023-05-20T11:16:53.000Z,1003.6
2023-05-20T11:18:10.000Z,1003.6
2023-05-20T11:19:26.000Z,1003.6
2023-05-20T11:20:42.000Z,1003.7
2023-05-20T11:21:58.000Z,1003.6
2023-05-20T11:23:15.000Z,1003.6
2023-05-20T11:24:31.000Z,1003.6
2023-05-20T11:25:47.000Z,1003.7
2023-05-20T11:27:03.000Z,1003.6
2023-05-20T11:28:18.000Z,1003.6
2023-05-20T11:29:35.000Z,1003.6
2023-05-20T11:30:51.000Z,1003.7
2023-05-20T11:32:07.698Z,1003.7
2023-05-20T11:33:23.000Z,1003.6
2023-05-20T11:34:40.000Z,1003.6
2023-05-20T11:35:56.000Z,1003.6
2023-05-20T11:37:12.000Z,1003.6
2023-05-20T11:38:28.000Z,1003.5
2023-05-20T11:39:45.000Z,1003.5
2023-05-20T11:41:01.000Z,1003.4
2023-05-20T11:42:17.000Z,1003.5
2023-05-20T11:43:33.000Z,1003.5
2023-05-20T11:44:50.000Z,1003.5
2023-05-20T11:46:05.000Z,1003.4
2023-05-20T11:47:21.000Z,1003.5
2023-05-20T11:48:37.000Z,1003.3
2023-05-20T11:49:54.000Z,1003.3
2023-05-20T11:51:10.000Z,1003.4
2023-05-20T11:52:26.000Z,1003.3
2023-05-20T11:53:42.000Z,1003.3
2023-05-20T11:54:59.000Z,1003.3
2023-05-20T11:56:15.000Z,1003.2
2023-05-20T11:57:31.000Z,1003.2
2023-05-20T11:58:47.000Z,1003.1
2023-05-20T12:00:03.000Z,1003.2
2023-05-20T12:01:20.000Z,1003.1
2023-05-20T12:02:35.000Z,1003.1
2023-05-20T12:03:51.000Z,1003.1
2023-05-20T12:05:07.000Z,1003
2023-05-20T12:06:24.000Z,1003
2023-05-20T12:07:40.000Z,1003.1
2023-05-20T12:08:56.000Z,1003.1
2023-05-20T12:10:12.913Z,1003
2023-05-20T12:11:29.000Z,1003.1
2023-05-20T12:12:45.000Z,1003.1
2023-05-20T12:14:01.624Z,1003
2023-05-20T12:15:17.000Z,1002.9
2023-05-20T12:16:34.000Z,1002.9
2023-05-20T12:17:50.000Z,1003
2023-05-20T12:19:05.000Z,1003
2023-05-20T12:20:21.000Z,1003
2023-05-20T12:21:38.000Z,1002.9
2023-05-20T12:22:54.000Z,1002.8
2023-05-20T12:24:10.000Z,1002.8
2023-05-20T12:25:26.000Z,1002.9
2023-05-20T12:26:43.000Z,1002.9
2023-05-20T12:27:59.000Z,1002.9
2023-05-20T12:29:15.000Z,1002.9
2023-05-20T12:30:31.000Z,1002.8
2023-05-20T12:31:47.000Z,1002.8
2023-05-20T12:33:04.000Z,1002.8
2023-05-20T12:34:20.000Z,1002.8
2023-05-20T12:35:35.000Z,1002.8
2023-05-20T12:36:51.000Z,1002.8
2023-05-20T12:38:08.000Z,1002.7
2023-05-20T12:39:24.000Z,1002.7
2023-05-20T12:40:40.000Z,1002.7
2023-05-20T12:41:56.000Z,1002.7
2023-05-20T12:43:13.153Z,1002.7
2023-05-20T12:44:29.000Z,1002.7
2023-05-20T12:45:45.000Z,1002.7
2023-05-20T12:47:01.882Z,1002.7
2023-05-20T12:48:18.000Z,1002.7
2023-05-20T12:49:34.000Z,1002.7
2023-05-20T12:50:50.000Z,1002.7
2023-05-20T12:52:06.000Z,1002.6
2023-05-20T12:53:23.000Z,1002.6
2023-05-20T12:54:39.000Z,1002.6
2023-05-20T12:55:55.664Z,1002.6
2023-05-20T12:57:11.911Z,1002.6
2023-05-20T12:58:28.000Z,1002.5
2023-05-20T12:59:44.000Z,1002.5
2023-05-20T13:01:00.000Z,1002.4
2023-05-20T13:02:16.000Z,1002.5
2023-05-20T13:03:33.000Z,1002.4
2023-05-20T13:04:49.000Z,1002.3
2023-05-20T13:06:05.000Z,1002.3
2023-05-20T13:07:21.813Z,1002.4
2023-05-20T13:08:37.000Z,1002.4
2023-05-20T13:09:53.000Z,1002.4
2023-05-20T13:11:09.000Z,1002.4
2023-05-20T13:12:25.000Z,1002.4
2023-05-20T13:13:42.000Z,1002.4
2023-05-20T13:14:58.000Z,1002.3
2023-05-20T13:16:14.000Z,1002.3
2023-05-20T13:17:30.000Z,1002.2
2023-05-20T13:18:46.000Z,1002.3
2023-05-20T13:20:03.000Z,1002.2
2023-05-20T13:21:19.000Z,1002.3
2023-05-20T13:22:35.000Z,1002.2
2023-05-20T13:23:51.000Z,1002.2
2023-05-20T13:25:07.000Z,1002.2
2023-05-20T13:26:23.000Z,1002.2
2023-05-20T13:27:39.000Z,1002.1
2023-05-20T13:28:55.000Z,1002.1
2023-05-20T13:30:12.000Z,1002.1
2023-05-20T13:31:28.000Z,1002.2
2023-05-20T13:32:44.000Z,1002.2
2023-05-20T13:34:00.000Z,1002.2
2023-05-20T13:35:17.000Z,1002.1
2023-05-20T13:36:33.368Z,1002.1
2023-05-20T13:37:49.000Z,1002.1
2023-05-20T13:39:05.000Z,1002.1
2023-05-20T13:40:22.000Z,1002.1
2023-05-20T13:41:37.000Z,1002.1
2023-05-20T13:42:53.000Z,1002
2023-05-20T13:44:09.000Z,1002
2023-05-20T13:45:26.000Z,1002
2023-05-20T13:46:42.000Z,1002
2023-05-20T13:47:58.000Z,1001.9
2023-05-20T13:49:14.000Z,1002
2023-05-20T13:50:31.000Z,1001.9
2023-05-20T13:51:47.000Z,1002
2023-05-20T13:53:03.000Z,1001.9
2023-05-20T13:54:19.720Z,1001.9
2023-05-20T13:55:35.000Z,1001.9
2023-05-20T13:56:52.000Z,1002
2023-05-20T13:58:07.000Z,1001.9
2023-05-20T13:59:23.000Z,1001.9
2023-05-20T14:00:39.000Z,1001.9
2023-05-20T14:01:56.000Z,1001.9
2023-05-20T14:03:12.000Z,1002
2023-05-20T14:04:28.000Z,1001.9
2023-05-20T14:05:44.000Z,1001.9
2023-05-20T14:07:01.135Z,1001.9
2023-05-20T14:08:17.000Z,1001.8
2023-05-20T14:09:33.000Z,1001.9
2023-05-20T14:10:49.000Z,1001.9
2023-05-20T14:12:06.000Z,1001.9
2023-05-20T14:13:22.000Z,1001.8
2023-05-20T14:14:37.000Z,1001.7
2023-05-20T14:15:53.000Z,1001.7
2023-05-20T14:17:10.000Z,1001.7
2023-05-20T14:18:26.000Z,1001.8
2023-05-20T14:19:42.561Z,1001.7
2023-05-20T14:20:57.000Z,1001.8
2023-05-20T14:22:14.000Z,1001.7
2023-05-20T14:23:30.000Z,1001.7
2023-05-20T14:24:46.000Z,1001.6
2023-05-20T14:26:02.000Z,1001.6
2023-05-20T14:27:19.000Z,1001.7
2023-05-20T14:28:35.255Z,1001.7
2023-05-20T14:29:51.487Z,1001.5
2023-05-20T14:31:07.721Z,1001.4
2023-05-20T14:32:23.000Z,1001.4
2023-05-20T14:33:40.000Z,1001.5
2023-05-20T14:34:56.000Z,1001.5
2023-05-20T14:36:12.000Z,1001.4
2023-05-20T14:37:27.000Z,1001.4
2023-05-20T14:38:44.000Z,1001.4
2023-05-20T14:40:00.430Z,1001.5
2023-05-20T14:41:16.000Z,1001.4
2023-05-20T14:42:32.865Z,1001.4
2023-05-20T14:43:49.000Z,1001.4
2023-05-20T14:45:05.000Z,1001.5
2023-05-20T14:46:21.000Z,1001.4
2023-05-20T14:47:37.000Z,1001.4
2023-05-20T14:48:54.000Z,1001.3
2023-05-20T14:50:10.000Z,1001.3
2023-05-20T14:51:26.000Z,1001.3
2023-05-20T14:52:42.000Z,1001.4
2023-05-20T14:53:58.000Z,1001.2
2023-05-20T14:55:14.000Z,1001.3
2023-05-20T14:56:30.000Z,1001.2
2023-05-20T14:57:46.000Z,1001.3
2023-05-20T14:59:03.000Z,1001.3
2023-05-20T15:00:19.000Z,1001.2
2023-05-20T15:01:35.000Z,1001.1
2023-05-20T15:02:51.000Z,1001.2
2023-05-20T15:04:07.000Z,1001.1
2023-05-20T15:05:24.000Z,1001
2023-05-20T15:06:40.000Z,1001.1
2023-05-20T15:07:56.000Z,1001.1
2023-05-20T15:09:12.000Z,1001
2023-05-20T15:10:28.000Z,1001.1
2023-05-20T15:11:44.000Z,1001.1
2023-05-20T15:13:00.000Z,1001
2023-05-20T15:14:16.000Z,1001.1
2023-05-20T15:15:33.142Z,1001.2
2023-05-20T15:16:49.000Z,1001.1
2023-05-20T15:18:05.000Z,1001.1
2023-05-20T15:19:21.813Z,1001.1
2023-05-20T15:20:38.000Z,1001.1
2023-05-20T15:21:54.000Z,1001.1
2023-05-20T15:23:10.000Z,1001.1
2023-05-20T15:24:26.000Z,1001
2023-05-20T15:25:43.000Z,1001
2023-05-20T15:26:58.000Z,1001
2023-05-20T15:28:14.000Z,1001.1
2023-05-20T15:29:30.000Z,1001
2023-05-20T15:30:47.000Z,1001
2023-05-20T15:32:03.000Z,1000.9
2023-05-20T15:33:19.000Z,1000.9
2023-05-20T15:34:35.000Z,1000.9
2023-05-20T15:35:51.000Z,1000.9
2023-05-20T15:37:08.000Z,1000.9
2023-05-20T15:38:24.000Z,1001
2023-05-20T15:39:40.000Z,1001
2023-05-20T15:40:56.000Z,1001
2023-05-20T15:42:13.000Z,1001
2023-05-20T15:43:28.000Z,1001
2023-05-20T15:44:44.640Z,1001
2023-05-20T15:46:00.000Z,1001
2023-05-20T15:47:17.000Z,1000.9
2023-05-20T15:48:33.000Z,1000.9
2023-05-20T15:49:49.000Z,1000.9
2023-05-20T15:51:05.000Z,1000.9
2023-05-20T15:52:22.000Z,1000.9
2023-05-20T15:53:38.368Z,1000.8
2023-05-20T15:54:54.000Z,1000.9
2023-05-20T15:56:10.000Z,1000.9
2023-05-20T15:57:27.000Z,1000.9
2023-05-20T15:58:43.325Z,1000.8
2023-05-20T15:59:58.000Z,1000.8
2023-05-20T16:01:14.000Z,1000.9
2023-05-20T16:02:31.000Z,1000.7